sensor_id;sensor_type;location;lat;lon;timestamp;P1;durP1;ratioP1;P2;durP2;ratioP2
5209;SDS011;2624;48.048;11.706;2022-11-15T00:02:45;4.90;;;2.33;;
5209;SDS011;2624;48.048;11.706;2022-11-15T00:07:47;2.00;;;1.83;;
5209;SDS011;2624;48.048;11.706;2022-11-15T00:12:50;2.20;;;2.03;;
5209;SDS011;2624;48.048;11.706;2022-11-15T00:17:52;2.03;;;1.93;;
5209;SDS011;2624;48.048;11.706;2022-11-15T00:22:54;1.90;;;1.80;;
5209;SDS011;2624;48.048;11.706;2022-11-15T00:27:57;2.30;;;2.10;;
5209;SDS011;2624;48.048;11.706;2022-11-15T00:33:01;1.67;;;1.57;;
5209;SDS011;2624;48.048;11.706;2022-11-15T00:38:03;1.93;;;1.83;;
5209;SDS011;2624;48.048;11.706;2022-11-15T00:43:06;2.30;;;2.10;;
5209;SDS011;2624;48.048;11.706;2022-11-15T00:48:08;3.03;;;2.57;;
5209;SDS011;2624;48.048;11.706;2022-11-15T00:53:11;2.47;;;2.23;;
5209;SDS011;2624;48.048;11.706;2022-11-15T00:58:14;3.03;;;2.00;;
5209;SDS011;2624;48.048;11.706;2022-11-15T01:03:16;2.30;;;2.20;;
5209;SDS011;2624;48.048;11.706;2022-11-15T01:08:17;2.40;;;2.20;;
5209;SDS011;2624;48.048;11.706;2022-11-15T01:13:20;2.77;;;1.70;;
5209;SDS011;2624;48.048;11.706;2022-11-15T01:18:22;4.37;;;1.93;;
5209;SDS011;2624;48.048;11.706;2022-11-15T01:23:24;1.97;;;1.83;;
5209;SDS011;2624;48.048;11.706;2022-11-15T01:28:30;1.77;;;1.67;;
5209;SDS011;2624;48.048;11.706;2022-11-15T01:33:33;2.30;;;2.10;;
5209;SDS011;2624;48.048;11.706;2022-11-15T01:38:36;2.27;;;2.17;;
5209;SDS011;2624;48.048;11.706;2022-11-15T01:43:39;2.97;;;1.90;;
5209;SDS011;2624;48.048;11.706;2022-11-15T01:48:41;2.23;;;2.00;;
5209;SDS011;2624;48.048;11.706;2022-11-15T01:53:44;2.43;;;1.93;;
5209;SDS011;2624;48.048;11.706;2022-11-15T01:58:49;2.30;;;2.10;;
5209;SDS011;2624;48.048;11.706;2022-11-15T02:03:55;2.30;;;2.10;;
5209;SDS011;2624;48.048;11.706;2022-11-15T02:08:59;1.80;;;1.70;;
5209;SDS011;2624;48.048;11.706;2022-11-15T02:14:03;1.63;;;1.53;;
5209;SDS011;2624;48.048;11.706;2022-11-15T02:19:08;1.40;;;1.30;;
5209;SDS011;2624;48.048;11.706;2022-11-15T02:24:35;1.53;;;1.53;;
5209;SDS011;2624;48.048;11.706;2022-11-15T02:30:04;1.53;;;1.40;;
5209;SDS011;2624;48.048;11.706;2022-11-15T02:35:28;1.20;;;1.20;;
5209;SDS011;2624;48.048;11.706;2022-11-15T02:40:39;1.53;;;1.40;;
5209;SDS011;2624;48.048;11.706;2022-11-15T02:45:53;1.10;;;1.10;;
5209;SDS011;2624;48.048;11.706;2022-11-15T02:51:01;1.53;;;1.43;;
5209;SDS011;2624;48.048;11.706;2022-11-15T02:56:03;6.93;;;1.40;;
5209;SDS011;2624;48.048;11.706;2022-11-15T03:01:08;4.53;;;1.50;;
5209;SDS011;2624;48.048;11.706;2022-11-15T03:06:20;1.53;;;1.20;;
5209;SDS011;2624;48.048;11.706;2022-11-15T03:11:29;1.13;;;1.13;;
5209;SDS011;2624;48.048;11.706;2022-11-15T03:16:36;1.00;;;1.00;;
5209;SDS011;2624;48.048;11.706;2022-11-15T03:21:40;1.40;;;1.30;;
5209;SDS011;2624;48.048;11.706;2022-11-15T03:26:43;1.47;;;1.30;;
5209;SDS011;2624;48.048;11.706;2022-11-15T03:31:48;1.20;;;1.20;;
5209;SDS011;2624;48.048;11.706;2022-11-15T03:36:55;2.10;;;1.03;;
5209;SDS011;2624;48.048;11.706;2022-11-15T03:42:00;1.83;;;1.33;;
5209;SDS011;2624;48.048;11.706;2022-11-15T03:47:11;1.30;;;1.20;;
5209;SDS011;2624;48.048;11.706;2022-11-15T03:52:17;1.40;;;1.40;;
5209;SDS011;2624;48.048;11.706;2022-11-15T03:57:21;1.00;;;1.00;;
5209;SDS011;2624;48.048;11.706;2022-11-15T04:02:24;1.30;;;1.20;;
5209;SDS011;2624;48.048;11.706;2022-11-15T04:07:26;1.20;;;1.13;;
5209;SDS011;2624;48.048;11.706;2022-11-15T04:12:28;1.07;;;1.07;;
5209;SDS011;2624;48.048;11.706;2022-11-15T04:17:34;2.80;;;1.17;;
5209;SDS011;2624;48.048;11.706;2022-11-15T04:22:37;1.73;;;1.10;;
5209;SDS011;2624;48.048;11.706;2022-11-15T04:27:56;1.10;;;1.10;;
5209;SDS011;2624;48.048;11.706;2022-11-15T04:33:00;1.47;;;1.37;;
5209;SDS011;2624;48.048;11.706;2022-11-15T04:38:02;1.70;;;1.57;;
5209;SDS011;2624;48.048;11.706;2022-11-15T04:43:05;1.50;;;1.40;;
5209;SDS011;2624;48.048;11.706;2022-11-15T04:48:08;1.33;;;1.17;;
5209;SDS011;2624;48.048;11.706;2022-11-15T04:53:11;1.50;;;1.40;;
5209;SDS011;2624;48.048;11.706;2022-11-15T04:58:13;1.10;;;1.00;;
5209;SDS011;2624;48.048;11.706;2022-11-15T05:03:16;2.20;;;1.67;;
5209;SDS011;2624;48.048;11.706;2022-11-15T05:08:35;1.53;;;1.43;;
5209;SDS011;2624;48.048;11.706;2022-11-15T05:13:37;0.90;;;0.90;;
5209;SDS011;2624;48.048;11.706;2022-11-15T05:18:40;0.93;;;0.93;;
5209;SDS011;2624;48.048;11.706;2022-11-15T05:23:42;0.87;;;0.87;;
5209;SDS011;2624;48.048;11.706;2022-11-15T05:28:44;1.13;;;1.03;;
5209;SDS011;2624;48.048;11.706;2022-11-15T05:33:48;1.10;;;1.00;;
5209;SDS011;2624;48.048;11.706;2022-11-15T05:38:50;2.60;;;1.53;;
5209;SDS011;2624;48.048;11.706;2022-11-15T05:43:52;2.20;;;2.10;;
5209;SDS011;2624;48.048;11.706;2022-11-15T05:48:56;2.40;;;2.27;;
5209;SDS011;2624;48.048;11.706;2022-11-15T05:53:58;2.50;;;2.10;;
5209;SDS011;2624;48.048;11.706;2022-11-15T05:59:02;1.90;;;1.80;;
5209;SDS011;2624;48.048;11.706;2022-11-15T06:04:06;3.53;;;1.80;;
5209;SDS011;2624;48.048;11.706;2022-11-15T06:09:08;1.10;;;1.10;;
5209;SDS011;2624;48.048;11.706;2022-11-15T06:14:09;1.50;;;1.40;;
5209;SDS011;2624;48.048;11.706;2022-11-15T06:19:12;2.40;;;2.17;;
5209;SDS011;2624;48.048;11.706;2022-11-15T06:24:14;2.20;;;1.97;;
5209;SDS011;2624;48.048;11.706;2022-11-15T06:29:16;3.00;;;1.83;;
5209;SDS011;2624;48.048;11.706;2022-11-15T06:34:19;3.03;;;1.10;;
5209;SDS011;2624;48.048;11.706;2022-11-15T06:39:21;2.30;;;1.27;;
5209;SDS011;2624;48.048;11.706;2022-11-15T06:44:23;1.20;;;1.10;;
5209;SDS011;2624;48.048;11.706;2022-11-15T06:49:26;2.30;;;1.70;;
5209;SDS011;2624;48.048;11.706;2022-11-15T06:54:28;1.47;;;1.37;;
5209;SDS011;2624;48.048;11.706;2022-11-15T06:59:29;1.27;;;1.00;;
5209;SDS011;2624;48.048;11.706;2022-11-15T07:04:33;1.93;;;1.83;;
5209;SDS011;2624;48.048;11.706;2022-11-15T07:09:36;2.27;;;2.07;;
5209;SDS011;2624;48.048;11.706;2022-11-15T07:14:38;2.00;;;1.87;;
5209;SDS011;2624;48.048;11.706;2022-11-15T07:19:41;4.37;;;1.73;;
5209;SDS011;2624;48.048;11.706;2022-11-15T07:24:43;1.47;;;1.47;;
5209;SDS011;2624;48.048;11.706;2022-11-15T07:29:44;1.77;;;1.67;;
5209;SDS011;2624;48.048;11.706;2022-11-15T07:34:47;4.37;;;2.53;;
5209;SDS011;2624;48.048;11.706;2022-11-15T07:39:49;1.63;;;1.53;;
5209;SDS011;2624;48.048;11.706;2022-11-15T07:44:51;2.10;;;2.00;;
5209;SDS011;2624;48.048;11.706;2022-11-15T07:49:54;1.30;;;1.30;;
5209;SDS011;2624;48.048;11.706;2022-11-15T07:54:56;2.30;;;2.10;;
5209;SDS011;2624;48.048;11.706;2022-11-15T07:59:58;1.90;;;1.80;;
5209;SDS011;2624;48.048;11.706;2022-11-15T08:05:01;1.43;;;1.33;;
5209;SDS011;2624;48.048;11.706;2022-11-15T08:10:03;2.77;;;2.53;;
5209;SDS011;2624;48.048;11.706;2022-11-15T08:15:07;2.27;;;2.17;;
5209;SDS011;2624;48.048;11.706;2022-11-15T08:20:11;2.20;;;2.07;;
5209;SDS011;2624;48.048;11.706;2022-11-15T08:25:13;2.10;;;1.90;;
5209;SDS011;2624;48.048;11.706;2022-11-15T08:30:15;1.27;;;1.27;;
5209;SDS011;2624;48.048;11.706;2022-11-15T08:35:18;1.40;;;1.33;;
5209;SDS011;2624;48.048;11.706;2022-11-15T08:40:20;1.60;;;1.33;;
5209;SDS011;2624;48.048;11.706;2022-11-15T08:45:22;2.13;;;1.57;;
5209;SDS011;2624;48.048;11.706;2022-11-15T08:50:25;4.97;;;1.30;;
5209;SDS011;2624;48.048;11.706;2022-11-15T08:55:27;2.27;;;1.73;;
5209;SDS011;2624;48.048;11.706;2022-11-15T09:00:29;1.70;;;1.50;;
5209;SDS011;2624;48.048;11.706;2022-11-15T09:05:32;1.67;;;1.10;;
5209;SDS011;2624;48.048;11.706;2022-11-15T09:10:37;1.50;;;1.40;;
5209;SDS011;2624;48.048;11.706;2022-11-15T09:15:39;2.50;;;1.50;;
5209;SDS011;2624;48.048;11.706;2022-11-15T09:20:42;2.97;;;1.83;;
5209;SDS011;2624;48.048;11.706;2022-11-15T09:25:43;1.83;;;1.73;;
5209;SDS011;2624;48.048;11.706;2022-11-15T09:30:45;1.93;;;1.70;;
5209;SDS011;2624;48.048;11.706;2022-11-15T09:35:48;2.43;;;2.17;;
5209;SDS011;2624;48.048;11.706;2022-11-15T09:40:51;1.73;;;1.63;;
5209;SDS011;2624;48.048;11.706;2022-11-15T09:46:15;2.40;;;1.73;;
5209;SDS011;2624;48.048;11.706;2022-11-15T09:51:26;2.43;;;2.23;;
5209;SDS011;2624;48.048;11.706;2022-11-15T09:56:32;2.33;;;1.40;;
5209;SDS011;2624;48.048;11.706;2022-11-15T10:01:39;2.47;;;2.37;;
5209;SDS011;2624;48.048;11.706;2022-11-15T10:06:49;3.10;;;2.40;;
5209;SDS011;2624;48.048;11.706;2022-11-15T10:11:55;4.77;;;4.30;;
5209;SDS011;2624;48.048;11.706;2022-11-15T10:17:12;4.93;;;2.93;;
5209;SDS011;2624;48.048;11.706;2022-11-15T10:22:37;2.50;;;2.37;;
5209;SDS011;2624;48.048;11.706;2022-11-15T10:27:41;2.20;;;2.10;;
5209;SDS011;2624;48.048;11.706;2022-11-15T10:32:45;2.53;;;2.33;;
5209;SDS011;2624;48.048;11.706;2022-11-15T10:37:50;1.90;;;1.80;;
5209;SDS011;2624;48.048;11.706;2022-11-15T10:48:22;1.93;;;1.80;;
5209;SDS011;2624;48.048;11.706;2022-11-15T10:53:31;2.43;;;1.60;;
5209;SDS011;2624;48.048;11.706;2022-11-15T10:58:50;1.77;;;1.67;;
5209;SDS011;2624;48.048;11.706;2022-11-15T11:03:58;4.93;;;1.40;;
5209;SDS011;2624;48.048;11.706;2022-11-15T11:09:04;2.07;;;1.83;;
5209;SDS011;2624;48.048;11.706;2022-11-15T11:14:11;1.50;;;1.40;;
5209;SDS011;2624;48.048;11.706;2022-11-15T11:19:17;1.60;;;1.50;;
5209;SDS011;2624;48.048;11.706;2022-11-15T11:24:38;1.70;;;1.60;;
5209;SDS011;2624;48.048;11.706;2022-11-15T11:29:49;4.87;;;2.10;;
5209;SDS011;2624;48.048;11.706;2022-11-15T11:35:04;1.70;;;1.60;;
5209;SDS011;2624;48.048;11.706;2022-11-15T11:40:16;2.00;;;1.63;;
5209;SDS011;2624;48.048;11.706;2022-11-15T11:51:08;2.20;;;2.00;;
5209;SDS011;2624;48.048;11.706;2022-11-15T11:56:21;1.70;;;1.60;;
5209;SDS011;2624;48.048;11.706;2022-11-15T12:01:26;2.00;;;1.90;;
5209;SDS011;2624;48.048;11.706;2022-11-15T12:06:33;1.53;;;1.43;;
5209;SDS011;2624;48.048;11.706;2022-11-15T12:11:43;1.80;;;1.70;;
5209;SDS011;2624;48.048;11.706;2022-11-15T12:16:52;1.50;;;1.40;;
5209;SDS011;2624;48.048;11.706;2022-11-15T12:21:55;2.13;;;1.90;;
5209;SDS011;2624;48.048;11.706;2022-11-15T12:27:05;1.70;;;1.60;;
5209;SDS011;2624;48.048;11.706;2022-11-15T12:32:24;1.80;;;1.70;;
5209;SDS011;2624;48.048;11.706;2022-11-15T12:43:02;1.37;;;1.37;;
5209;SDS011;2624;48.048;11.706;2022-11-15T12:54:03;1.77;;;1.20;;
5209;SDS011;2624;48.048;11.706;2022-11-15T12:59:50;1.10;;;1.10;;
5209;SDS011;2624;48.048;11.706;2022-11-15T13:04:55;1.10;;;1.10;;
5209;SDS011;2624;48.048;11.706;2022-11-15T13:10:35;1.50;;;1.50;;
5209;SDS011;2624;48.048;11.706;2022-11-15T13:15:39;1.10;;;1.00;;
5209;SDS011;2624;48.048;11.706;2022-11-15T13:20:53;1.50;;;1.40;;
5209;SDS011;2624;48.048;11.706;2022-11-15T13:26:12;1.90;;;1.40;;
5209;SDS011;2624;48.048;11.706;2022-11-15T13:31:25;1.30;;;1.30;;
5209;SDS011;2624;48.048;11.706;2022-11-15T13:36:35;1.40;;;1.30;;
5209;SDS011;2624;48.048;11.706;2022-11-15T13:41:45;2.23;;;2.13;;
5209;SDS011;2624;48.048;11.706;2022-11-15T13:46:50;1.57;;;1.57;;
5209;SDS011;2624;48.048;11.706;2022-11-15T13:52:04;1.43;;;1.43;;
5209;SDS011;2624;48.048;11.706;2022-11-15T13:57:09;1.40;;;1.37;;
5209;SDS011;2624;48.048;11.706;2022-11-15T14:02:15;2.03;;;1.70;;
5209;SDS011;2624;48.048;11.706;2022-11-15T14:07:19;1.80;;;1.70;;
5209;SDS011;2624;48.048;11.706;2022-11-15T14:12:25;2.03;;;1.90;;
5209;SDS011;2624;48.048;11.706;2022-11-15T14:17:37;1.83;;;1.73;;
5209;SDS011;2624;48.048;11.706;2022-11-15T14:22:40;2.73;;;2.53;;
5209;SDS011;2624;48.048;11.706;2022-11-15T14:28:09;2.50;;;2.30;;
5209;SDS011;2624;48.048;11.706;2022-11-15T14:33:17;1.83;;;1.73;;
5209;SDS011;2624;48.048;11.706;2022-11-15T14:38:22;3.00;;;2.30;;
5209;SDS011;2624;48.048;11.706;2022-11-15T14:43:24;2.07;;;1.97;;
5209;SDS011;2624;48.048;11.706;2022-11-15T14:48:27;2.10;;;1.70;;
5209;SDS011;2624;48.048;11.706;2022-11-15T14:53:29;2.00;;;1.90;;
5209;SDS011;2624;48.048;11.706;2022-11-15T14:58:31;1.90;;;1.77;;
5209;SDS011;2624;48.048;11.706;2022-11-15T15:03:34;3.37;;;1.97;;
5209;SDS011;2624;48.048;11.706;2022-11-15T15:08:35;25.97;;;2.87;;
5209;SDS011;2624;48.048;11.706;2022-11-15T15:13:37;3.00;;;2.00;;
5209;SDS011;2624;48.048;11.706;2022-11-15T15:18:40;6.03;;;2.13;;
5209;SDS011;2624;48.048;11.706;2022-11-15T15:23:43;9.10;;;2.37;;
5209;SDS011;2624;48.048;11.706;2022-11-15T15:28:45;2.53;;;2.37;;
5209;SDS011;2624;48.048;11.706;2022-11-15T15:33:49;6.50;;;2.40;;
5209;SDS011;2624;48.048;11.706;2022-11-15T15:38:51;8.23;;;2.53;;
5209;SDS011;2624;48.048;11.706;2022-11-15T15:43:53;2.60;;;1.83;;
5209;SDS011;2624;48.048;11.706;2022-11-15T15:48:56;4.20;;;2.00;;
5209;SDS011;2624;48.048;11.706;2022-11-15T15:53:58;11.53;;;5.77;;
5209;SDS011;2624;48.048;11.706;2022-11-15T15:59:00;4.50;;;4.07;;
5209;SDS011;2624;48.048;11.706;2022-11-15T16:04:03;3.63;;;2.57;;
5209;SDS011;2624;48.048;11.706;2022-11-15T16:09:05;10.40;;;4.37;;
5209;SDS011;2624;48.048;11.706;2022-11-15T16:14:07;15.10;;;7.57;;
5209;SDS011;2624;48.048;11.706;2022-11-15T16:19:11;3.37;;;2.83;;
5209;SDS011;2624;48.048;11.706;2022-11-15T16:24:13;6.53;;;2.43;;
5209;SDS011;2624;48.048;11.706;2022-11-15T16:29:14;10.93;;;4.20;;
5209;SDS011;2624;48.048;11.706;2022-11-15T16:34:18;8.37;;;3.80;;
5209;SDS011;2624;48.048;11.706;2022-11-15T16:39:19;5.90;;;3.07;;
5209;SDS011;2624;48.048;11.706;2022-11-15T16:44:22;2.77;;;2.53;;
5209;SDS011;2624;48.048;11.706;2022-11-15T16:49:26;6.47;;;2.87;;
5209;SDS011;2624;48.048;11.706;2022-11-15T16:54:27;5.83;;;4.13;;
5209;SDS011;2624;48.048;11.706;2022-11-15T16:59:29;7.23;;;3.73;;
5209;SDS011;2624;48.048;11.706;2022-11-15T17:04:33;4.00;;;3.50;;
5209;SDS011;2624;48.048;11.706;2022-11-15T17:09:35;5.90;;;4.43;;
5209;SDS011;2624;48.048;11.706;2022-11-15T17:14:37;12.90;;;7.00;;
5209;SDS011;2624;48.048;11.706;2022-11-15T17:19:40;17.03;;;5.53;;
5209;SDS011;2624;48.048;11.706;2022-11-15T17:24:42;4.77;;;3.90;;
5209;SDS011;2624;48.048;11.706;2022-11-15T17:29:44;8.20;;;4.10;;
5209;SDS011;2624;48.048;11.706;2022-11-15T17:34:47;9.67;;;5.67;;
5209;SDS011;2624;48.048;11.706;2022-11-15T17:39:48;5.70;;;4.87;;
5209;SDS011;2624;48.048;11.706;2022-11-15T17:44:50;18.23;;;7.47;;
5209;SDS011;2624;48.048;11.706;2022-11-15T17:49:53;10.30;;;5.70;;
5209;SDS011;2624;48.048;11.706;2022-11-15T17:54:55;24.90;;;10.93;;
5209;SDS011;2624;48.048;11.706;2022-11-15T17:59:57;41.97;;;15.30;;
5209;SDS011;2624;48.048;11.706;2022-11-15T18:05:00;12.47;;;7.27;;
5209;SDS011;2624;48.048;11.706;2022-11-15T18:10:03;16.97;;;8.10;;
5209;SDS011;2624;48.048;11.706;2022-11-15T18:15:05;15.20;;;8.37;;
5209;SDS011;2624;48.048;11.706;2022-11-15T18:20:09;8.93;;;5.27;;
5209;SDS011;2624;48.048;11.706;2022-11-15T18:25:12;6.87;;;4.93;;
5209;SDS011;2624;48.048;11.706;2022-11-15T18:30:15;6.03;;;4.33;;
5209;SDS011;2624;48.048;11.706;2022-11-15T18:35:18;8.00;;;3.80;;
5209;SDS011;2624;48.048;11.706;2022-11-15T18:40:20;4.30;;;3.33;;
5209;SDS011;2624;48.048;11.706;2022-11-15T18:45:22;4.40;;;4.00;;
5209;SDS011;2624;48.048;11.706;2022-11-15T18:50:25;6.97;;;3.60;;
5209;SDS011;2624;48.048;11.706;2022-11-15T18:55:27;5.30;;;3.50;;
5209;SDS011;2624;48.048;11.706;2022-11-15T19:00:28;3.93;;;3.53;;
5209;SDS011;2624;48.048;11.706;2022-11-15T19:05:32;4.03;;;3.53;;
5209;SDS011;2624;48.048;11.706;2022-11-15T19:10:34;3.90;;;2.43;;
5209;SDS011;2624;48.048;11.706;2022-11-15T19:15:36;4.57;;;3.70;;
5209;SDS011;2624;48.048;11.706;2022-11-15T19:20:39;8.37;;;5.57;;
5209;SDS011;2624;48.048;11.706;2022-11-15T19:25:41;7.57;;;5.17;;
5209;SDS011;2624;48.048;11.706;2022-11-15T19:30:42;16.53;;;4.37;;
5209;SDS011;2624;48.048;11.706;2022-11-15T19:35:46;6.50;;;3.93;;
5209;SDS011;2624;48.048;11.706;2022-11-15T19:40:47;6.27;;;3.40;;
5209;SDS011;2624;48.048;11.706;2022-11-15T19:45:51;5.37;;;3.20;;
5209;SDS011;2624;48.048;11.706;2022-11-15T19:50:58;3.17;;;2.87;;
5209;SDS011;2624;48.048;11.706;2022-11-15T19:56:01;3.20;;;2.97;;
5209;SDS011;2624;48.048;11.706;2022-11-15T20:01:04;5.17;;;4.30;;
5209;SDS011;2624;48.048;11.706;2022-11-15T20:06:09;5.90;;;3.63;;
5209;SDS011;2624;48.048;11.706;2022-11-15T20:11:14;4.13;;;3.13;;
5209;SDS011;2624;48.048;11.706;2022-11-15T20:16:17;5.20;;;3.87;;
5209;SDS011;2624;48.048;11.706;2022-11-15T20:21:22;7.40;;;4.60;;
5209;SDS011;2624;48.048;11.706;2022-11-15T20:26:24;16.57;;;5.90;;
5209;SDS011;2624;48.048;11.706;2022-11-15T20:31:25;8.90;;;4.83;;
5209;SDS011;2624;48.048;11.706;2022-11-15T20:36:29;5.37;;;4.03;;
5209;SDS011;2624;48.048;11.706;2022-11-15T20:41:31;7.00;;;4.57;;
5209;SDS011;2624;48.048;11.706;2022-11-15T20:46:32;8.73;;;5.03;;
5209;SDS011;2624;48.048;11.706;2022-11-15T20:51:35;6.00;;;4.57;;
5209;SDS011;2624;48.048;11.706;2022-11-15T20:56:37;6.10;;;4.50;;
5209;SDS011;2624;48.048;11.706;2022-11-15T21:01:39;9.53;;;5.40;;
5209;SDS011;2624;48.048;11.706;2022-11-15T21:06:43;8.90;;;5.73;;
5209;SDS011;2624;48.048;11.706;2022-11-15T21:11:45;8.47;;;4.67;;
5209;SDS011;2624;48.048;11.706;2022-11-15T21:17:04;6.23;;;3.60;;
5209;SDS011;2624;48.048;11.706;2022-11-15T21:22:08;6.23;;;3.40;;
5209;SDS011;2624;48.048;11.706;2022-11-15T21:27:12;4.80;;;3.17;;
5209;SDS011;2624;48.048;11.706;2022-11-15T21:32:14;4.13;;;3.73;;
5209;SDS011;2624;48.048;11.706;2022-11-15T21:37:17;7.53;;;4.20;;
5209;SDS011;2624;48.048;11.706;2022-11-15T21:42:19;5.13;;;3.60;;
5209;SDS011;2624;48.048;11.706;2022-11-15T21:47:21;4.13;;;3.27;;
5209;SDS011;2624;48.048;11.706;2022-11-15T21:52:24;6.20;;;2.87;;
5209;SDS011;2624;48.048;11.706;2022-11-15T21:57:26;3.43;;;3.13;;
5209;SDS011;2624;48.048;11.706;2022-11-15T22:02:29;8.40;;;3.80;;
5209;SDS011;2624;48.048;11.706;2022-11-15T22:07:32;4.00;;;3.00;;
5209;SDS011;2624;48.048;11.706;2022-11-15T22:12:34;6.20;;;3.60;;
5209;SDS011;2624;48.048;11.706;2022-11-15T22:17:35;5.70;;;3.90;;
5209;SDS011;2624;48.048;11.706;2022-11-15T22:22:57;4.10;;;3.47;;
5209;SDS011;2624;48.048;11.706;2022-11-15T22:28:00;4.73;;;2.93;;
5209;SDS011;2624;48.048;11.706;2022-11-15T22:33:02;7.67;;;3.83;;
5209;SDS011;2624;48.048;11.706;2022-11-15T22:38:05;8.77;;;4.80;;
5209;SDS011;2624;48.048;11.706;2022-11-15T22:43:08;4.40;;;3.53;;
5209;SDS011;2624;48.048;11.706;2022-11-15T22:48:11;6.07;;;3.20;;
5209;SDS011;2624;48.048;11.706;2022-11-15T22:53:14;3.10;;;2.77;;
5209;SDS011;2624;48.048;11.706;2022-11-15T22:58:17;3.03;;;2.80;;
5209;SDS011;2624;48.048;11.706;2022-11-15T23:03:19;5.73;;;3.70;;
5209;SDS011;2624;48.048;11.706;2022-11-15T23:08:22;3.07;;;2.70;;
5209;SDS011;2624;48.048;11.706;2022-11-15T23:13:25;19.53;;;3.90;;
5209;SDS011;2624;48.048;11.706;2022-11-15T23:18:28;5.80;;;3.60;;
5209;SDS011;2624;48.048;11.706;2022-11-15T23:23:34;9.83;;;4.20;;
5209;SDS011;2624;48.048;11.706;2022-11-15T23:28:36;4.63;;;3.57;;
5209;SDS011;2624;48.048;11.706;2022-11-15T23:33:38;2.97;;;2.77;;
5209;SDS011;2624;48.048;11.706;2022-11-15T23:39:00;4.50;;;2.73;;
5209;SDS011;2624;48.048;11.706;2022-11-15T23:44:02;3.97;;;3.67;;
5209;SDS011;2624;48.048;11.706;2022-11-15T23:49:04;6.33;;;3.80;;
5209;SDS011;2624;48.048;11.706;2022-11-15T23:54:07;6.30;;;3.67;;
5209;SDS011;2624;48.048;11.706;2022-11-15T23:59:09;3.83;;;3.20;;
